sensor_id;sensor_type;location;lat;lon;timestamp;P1;durP1;ratioP1;P2;durP2;ratioP2
68940;SDS011;55982;51.476;7.552;2022-10-24T00:00:47;15.45;;;4.13;;
68940;SDS011;55982;51.476;7.552;2022-10-24T00:03:13;9.88;;;3.25;;
68940;SDS011;55982;51.476;7.552;2022-10-24T00:05:43;14.32;;;3.88;;
68940;SDS011;55982;51.476;7.552;2022-10-24T00:08:10;16.35;;;3.55;;
68940;SDS011;55982;51.476;7.552;2022-10-24T00:10:36;19.30;;;3.45;;
68940;SDS011;55982;51.476;7.552;2022-10-24T00:13:04;12.48;;;3.60;;
68940;SDS011;55982;51.476;7.552;2022-10-24T00:15:30;15.40;;;3.63;;
68940;SDS011;55982;51.476;7.552;2022-10-24T00:17:56;13.50;;;3.28;;
68940;SDS011;55982;51.476;7.552;2022-10-24T00:20:21;15.68;;;3.58;;
68940;SDS011;55982;51.476;7.552;2022-10-24T00:22:46;17.58;;;3.65;;
68940;SDS011;55982;51.476;7.552;2022-10-24T00:25:12;21.42;;;4.65;;
68940;SDS011;55982;51.476;7.552;2022-10-24T00:27:37;21.52;;;4.75;;
68940;SDS011;55982;51.476;7.552;2022-10-24T00:30:03;10.88;;;3.55;;
68940;SDS011;55982;51.476;7.552;2022-10-24T00:32:29;12.05;;;3.88;;
68940;SDS011;55982;51.476;7.552;2022-10-24T00:34:55;9.77;;;3.83;;
68940;SDS011;55982;51.476;7.552;2022-10-24T00:37:20;15.88;;;4.45;;
68940;SDS011;55982;51.476;7.552;2022-10-24T00:39:45;17.02;;;3.83;;
68940;SDS011;55982;51.476;7.552;2022-10-24T00:42:11;19.55;;;4.40;;
68940;SDS011;55982;51.476;7.552;2022-10-24T00:44:37;15.77;;;3.42;;
68940;SDS011;55982;51.476;7.552;2022-10-24T00:49:35;13.55;;;4.00;;
68940;SDS011;55982;51.476;7.552;2022-10-24T00:52:10;9.43;;;3.70;;
68940;SDS011;55982;51.476;7.552;2022-10-24T00:54:38;15.07;;;3.65;;
68940;SDS011;55982;51.476;7.552;2022-10-24T00:59:54;18.65;;;4.03;;
68940;SDS011;55982;51.476;7.552;2022-10-24T01:02:22;14.20;;;3.75;;
68940;SDS011;55982;51.476;7.552;2022-10-24T01:04:48;16.23;;;4.28;;
68940;SDS011;55982;51.476;7.552;2022-10-24T01:07:16;15.57;;;3.92;;
68940;SDS011;55982;51.476;7.552;2022-10-24T01:20:39;12.02;;;3.80;;
68940;SDS011;55982;51.476;7.552;2022-10-24T01:28:16;12.80;;;3.78;;
68940;SDS011;55982;51.476;7.552;2022-10-24T01:30:45;13.90;;;3.90;;
68940;SDS011;55982;51.476;7.552;2022-10-24T01:33:37;12.73;;;3.10;;
68940;SDS011;55982;51.476;7.552;2022-10-24T01:38:56;19.25;;;3.40;;
68940;SDS011;55982;51.476;7.552;2022-10-24T01:41:27;7.18;;;2.75;;
68940;SDS011;55982;51.476;7.552;2022-10-24T01:46:28;12.15;;;3.28;;
68940;SDS011;55982;51.476;7.552;2022-10-24T01:48:58;12.88;;;3.50;;
68940;SDS011;55982;51.476;7.552;2022-10-24T01:51:28;9.60;;;3.03;;
68940;SDS011;55982;51.476;7.552;2022-10-24T01:53:56;16.27;;;3.72;;
68940;SDS011;55982;51.476;7.552;2022-10-24T01:56:25;10.93;;;3.88;;
68940;SDS011;55982;51.476;7.552;2022-10-24T01:58:51;13.27;;;3.10;;
68940;SDS011;55982;51.476;7.552;2022-10-24T02:01:17;14.85;;;3.22;;
68940;SDS011;55982;51.476;7.552;2022-10-24T02:03:49;13.27;;;3.50;;
68940;SDS011;55982;51.476;7.552;2022-10-24T02:06:22;10.73;;;3.38;;
68940;SDS011;55982;51.476;7.552;2022-10-24T02:08:54;11.23;;;3.10;;
68940;SDS011;55982;51.476;7.552;2022-10-24T02:11:22;14.88;;;3.50;;
68940;SDS011;55982;51.476;7.552;2022-10-24T02:13:56;13.25;;;3.30;;
68940;SDS011;55982;51.476;7.552;2022-10-24T02:16:27;17.92;;;3.72;;
68940;SDS011;55982;51.476;7.552;2022-10-24T02:18:53;17.45;;;3.72;;
68940;SDS011;55982;51.476;7.552;2022-10-24T02:24:02;12.73;;;3.40;;
68940;SDS011;55982;51.476;7.552;2022-10-24T02:26:33;9.27;;;3.55;;
68940;SDS011;55982;51.476;7.552;2022-10-24T02:29:14;12.38;;;3.30;;
68940;SDS011;55982;51.476;7.552;2022-10-24T02:31:49;10.10;;;3.88;;
68940;SDS011;55982;51.476;7.552;2022-10-24T02:34:19;15.93;;;3.85;;
68940;SDS011;55982;51.476;7.552;2022-10-24T02:36:48;14.90;;;3.95;;
68940;SDS011;55982;51.476;7.552;2022-10-24T02:39:15;10.00;;;3.42;;
68940;SDS011;55982;51.476;7.552;2022-10-24T02:41:42;11.07;;;3.22;;
68940;SDS011;55982;51.476;7.552;2022-10-24T02:44:09;18.50;;;3.83;;
68940;SDS011;55982;51.476;7.552;2022-10-24T02:46:37;15.70;;;3.35;;
68940;SDS011;55982;51.476;7.552;2022-10-24T02:49:04;13.30;;;3.10;;
68940;SDS011;55982;51.476;7.552;2022-10-24T02:51:31;7.53;;;3.30;;
68940;SDS011;55982;51.476;7.552;2022-10-24T02:53:59;11.40;;;3.05;;
68940;SDS011;55982;51.476;7.552;2022-10-24T02:56:26;13.68;;;3.00;;
68940;SDS011;55982;51.476;7.552;2022-10-24T02:58:51;10.55;;;2.95;;
68940;SDS011;55982;51.476;7.552;2022-10-24T03:01:17;10.27;;;3.15;;
68940;SDS011;55982;51.476;7.552;2022-10-24T03:03:42;11.25;;;3.28;;
68940;SDS011;55982;51.476;7.552;2022-10-24T03:06:08;12.95;;;3.17;;
68940;SDS011;55982;51.476;7.552;2022-10-24T03:08:34;11.02;;;3.30;;
68940;SDS011;55982;51.476;7.552;2022-10-24T03:10:59;9.93;;;3.13;;
68940;SDS011;55982;51.476;7.552;2022-10-24T03:13:24;13.80;;;3.30;;
68940;SDS011;55982;51.476;7.552;2022-10-24T03:15:50;7.90;;;3.20;;
68940;SDS011;55982;51.476;7.552;2022-10-24T03:18:15;11.68;;;3.15;;
68940;SDS011;55982;51.476;7.552;2022-10-24T03:20:40;13.98;;;3.03;;
68940;SDS011;55982;51.476;7.552;2022-10-24T03:23:06;12.05;;;2.80;;
68940;SDS011;55982;51.476;7.552;2022-10-24T03:25:32;9.48;;;3.10;;
68940;SDS011;55982;51.476;7.552;2022-10-24T03:27:57;16.77;;;2.55;;
68940;SDS011;55982;51.476;7.552;2022-10-24T03:30:23;9.15;;;2.47;;
68940;SDS011;55982;51.476;7.552;2022-10-24T03:32:48;16.38;;;2.75;;
68940;SDS011;55982;51.476;7.552;2022-10-24T03:35:13;16.15;;;3.10;;
68940;SDS011;55982;51.476;7.552;2022-10-24T03:37:40;8.13;;;3.47;;
68940;SDS011;55982;51.476;7.552;2022-10-24T03:40:06;13.90;;;3.25;;
68940;SDS011;55982;51.476;7.552;2022-10-24T03:42:32;9.55;;;2.65;;
68940;SDS011;55982;51.476;7.552;2022-10-24T03:44:57;14.73;;;3.42;;
68940;SDS011;55982;51.476;7.552;2022-10-24T03:47:23;14.57;;;2.90;;
68940;SDS011;55982;51.476;7.552;2022-10-24T03:49:48;11.75;;;3.00;;
68940;SDS011;55982;51.476;7.552;2022-10-24T03:52:13;15.10;;;3.10;;
68940;SDS011;55982;51.476;7.552;2022-10-24T03:54:39;10.00;;;2.75;;
68940;SDS011;55982;51.476;7.552;2022-10-24T03:57:04;15.13;;;3.03;;
68940;SDS011;55982;51.476;7.552;2022-10-24T03:59:30;8.73;;;2.72;;
68940;SDS011;55982;51.476;7.552;2022-10-24T04:01:55;12.85;;;2.85;;
68940;SDS011;55982;51.476;7.552;2022-10-24T04:04:21;11.73;;;2.70;;
68940;SDS011;55982;51.476;7.552;2022-10-24T04:06:46;8.55;;;2.67;;
68940;SDS011;55982;51.476;7.552;2022-10-24T04:09:12;10.95;;;3.05;;
68940;SDS011;55982;51.476;7.552;2022-10-24T04:11:37;12.38;;;3.33;;
68940;SDS011;55982;51.476;7.552;2022-10-24T04:14:03;10.77;;;3.00;;
68940;SDS011;55982;51.476;7.552;2022-10-24T04:16:29;18.13;;;3.35;;
68940;SDS011;55982;51.476;7.552;2022-10-24T04:18:58;10.85;;;3.00;;
68940;SDS011;55982;51.476;7.552;2022-10-24T04:21:23;12.00;;;3.38;;
68940;SDS011;55982;51.476;7.552;2022-10-24T04:23:49;12.55;;;3.20;;
68940;SDS011;55982;51.476;7.552;2022-10-24T04:26:14;8.93;;;2.80;;
68940;SDS011;55982;51.476;7.552;2022-10-24T04:28:41;7.72;;;2.90;;
68940;SDS011;55982;51.476;7.552;2022-10-24T04:31:06;11.05;;;3.70;;
68940;SDS011;55982;51.476;7.552;2022-10-24T04:33:32;10.65;;;2.75;;
68940;SDS011;55982;51.476;7.552;2022-10-24T04:35:57;10.95;;;2.90;;
68940;SDS011;55982;51.476;7.552;2022-10-24T04:38:22;11.02;;;3.50;;
68940;SDS011;55982;51.476;7.552;2022-10-24T04:40:50;16.60;;;3.28;;
68940;SDS011;55982;51.476;7.552;2022-10-24T04:43:17;9.52;;;3.45;;
68940;SDS011;55982;51.476;7.552;2022-10-24T04:45:43;9.43;;;2.78;;
68940;SDS011;55982;51.476;7.552;2022-10-24T04:48:09;8.40;;;2.47;;
68940;SDS011;55982;51.476;7.552;2022-10-24T04:50:34;9.57;;;2.92;;
68940;SDS011;55982;51.476;7.552;2022-10-24T04:53:00;12.20;;;2.88;;
68940;SDS011;55982;51.476;7.552;2022-10-24T04:55:26;8.63;;;3.17;;
68940;SDS011;55982;51.476;7.552;2022-10-24T04:57:52;12.13;;;2.45;;
68940;SDS011;55982;51.476;7.552;2022-10-24T05:00:17;11.30;;;2.42;;
68940;SDS011;55982;51.476;7.552;2022-10-24T05:02:43;6.95;;;2.28;;
68940;SDS011;55982;51.476;7.552;2022-10-24T05:05:08;11.25;;;2.90;;
68940;SDS011;55982;51.476;7.552;2022-10-24T05:07:34;11.75;;;3.00;;
68940;SDS011;55982;51.476;7.552;2022-10-24T05:09:59;7.18;;;2.47;;
68940;SDS011;55982;51.476;7.552;2022-10-24T05:12:25;6.57;;;2.25;;
68940;SDS011;55982;51.476;7.552;2022-10-24T05:14:50;5.05;;;2.30;;
68940;SDS011;55982;51.476;7.552;2022-10-24T05:17:15;11.07;;;2.38;;
68940;SDS011;55982;51.476;7.552;2022-10-24T05:19:41;9.98;;;2.60;;
68940;SDS011;55982;51.476;7.552;2022-10-24T05:22:06;7.50;;;2.25;;
68940;SDS011;55982;51.476;7.552;2022-10-24T05:24:31;9.68;;;2.75;;
68940;SDS011;55982;51.476;7.552;2022-10-24T05:26:57;15.90;;;2.85;;
68940;SDS011;55982;51.476;7.552;2022-10-24T05:29:22;8.88;;;2.13;;
68940;SDS011;55982;51.476;7.552;2022-10-24T05:31:48;9.18;;;2.40;;
68940;SDS011;55982;51.476;7.552;2022-10-24T05:34:13;13.00;;;2.22;;
68940;SDS011;55982;51.476;7.552;2022-10-24T05:36:38;9.65;;;2.17;;
68940;SDS011;55982;51.476;7.552;2022-10-24T05:39:04;8.10;;;2.00;;
68940;SDS011;55982;51.476;7.552;2022-10-24T05:41:29;10.35;;;2.22;;
68940;SDS011;55982;51.476;7.552;2022-10-24T05:43:56;8.73;;;2.38;;
68940;SDS011;55982;51.476;7.552;2022-10-24T05:46:22;8.25;;;2.42;;
68940;SDS011;55982;51.476;7.552;2022-10-24T05:48:47;13.15;;;2.70;;
68940;SDS011;55982;51.476;7.552;2022-10-24T05:51:12;10.85;;;2.08;;
68940;SDS011;55982;51.476;7.552;2022-10-24T05:53:38;5.35;;;1.88;;
68940;SDS011;55982;51.476;7.552;2022-10-24T05:56:03;11.23;;;2.25;;
68940;SDS011;55982;51.476;7.552;2022-10-24T05:58:30;8.27;;;2.53;;
68940;SDS011;55982;51.476;7.552;2022-10-24T06:00:55;7.70;;;2.10;;
68940;SDS011;55982;51.476;7.552;2022-10-24T06:03:21;7.13;;;1.92;;
68940;SDS011;55982;51.476;7.552;2022-10-24T06:05:46;7.57;;;1.98;;
68940;SDS011;55982;51.476;7.552;2022-10-24T06:08:12;6.60;;;2.03;;
68940;SDS011;55982;51.476;7.552;2022-10-24T06:10:37;11.45;;;2.53;;
68940;SDS011;55982;51.476;7.552;2022-10-24T06:13:02;12.23;;;1.40;;
68940;SDS011;55982;51.476;7.552;2022-10-24T06:15:28;3.83;;;1.50;;
68940;SDS011;55982;51.476;7.552;2022-10-24T06:17:54;9.18;;;1.85;;
68940;SDS011;55982;51.476;7.552;2022-10-24T06:20:19;5.43;;;1.42;;
68940;SDS011;55982;51.476;7.552;2022-10-24T06:22:44;4.32;;;1.80;;
68940;SDS011;55982;51.476;7.552;2022-10-24T06:25:10;7.55;;;1.85;;
68940;SDS011;55982;51.476;7.552;2022-10-24T06:27:37;8.70;;;1.83;;
68940;SDS011;55982;51.476;7.552;2022-10-24T06:30:03;10.70;;;2.10;;
68940;SDS011;55982;51.476;7.552;2022-10-24T06:32:29;4.55;;;1.40;;
68940;SDS011;55982;51.476;7.552;2022-10-24T06:34:55;11.40;;;1.67;;
68940;SDS011;55982;51.476;7.552;2022-10-24T06:37:20;5.05;;;1.55;;
68940;SDS011;55982;51.476;7.552;2022-10-24T06:39:45;5.82;;;1.63;;
68940;SDS011;55982;51.476;7.552;2022-10-24T06:42:11;6.50;;;1.70;;
68940;SDS011;55982;51.476;7.552;2022-10-24T06:44:37;5.47;;;1.70;;
68940;SDS011;55982;51.476;7.552;2022-10-24T06:47:02;8.95;;;1.90;;
68940;SDS011;55982;51.476;7.552;2022-10-24T06:49:28;6.93;;;2.03;;
68940;SDS011;55982;51.476;7.552;2022-10-24T06:51:54;7.85;;;1.85;;
68940;SDS011;55982;51.476;7.552;2022-10-24T06:54:19;7.47;;;1.88;;
68940;SDS011;55982;51.476;7.552;2022-10-24T06:56:45;7.60;;;1.73;;
68940;SDS011;55982;51.476;7.552;2022-10-24T06:59:11;7.97;;;1.92;;
68940;SDS011;55982;51.476;7.552;2022-10-24T07:01:44;5.88;;;1.67;;
68940;SDS011;55982;51.476;7.552;2022-10-24T07:04:10;11.52;;;1.77;;
68940;SDS011;55982;51.476;7.552;2022-10-24T07:06:35;9.63;;;1.92;;
68940;SDS011;55982;51.476;7.552;2022-10-24T07:09:02;13.93;;;1.92;;
68940;SDS011;55982;51.476;7.552;2022-10-24T07:11:28;6.53;;;1.45;;
68940;SDS011;55982;51.476;7.552;2022-10-24T07:13:54;9.00;;;1.52;;
68940;SDS011;55982;51.476;7.552;2022-10-24T07:16:20;5.78;;;1.52;;
68940;SDS011;55982;51.476;7.552;2022-10-24T07:18:46;11.25;;;2.10;;
68940;SDS011;55982;51.476;7.552;2022-10-24T07:21:13;5.75;;;1.90;;
68940;SDS011;55982;51.476;7.552;2022-10-24T07:23:41;10.75;;;1.67;;
68940;SDS011;55982;51.476;7.552;2022-10-24T07:26:07;8.50;;;1.83;;
68940;SDS011;55982;51.476;7.552;2022-10-24T07:28:36;6.85;;;1.50;;
68940;SDS011;55982;51.476;7.552;2022-10-24T07:31:03;7.05;;;2.03;;
68940;SDS011;55982;51.476;7.552;2022-10-24T07:33:29;3.60;;;1.67;;
68940;SDS011;55982;51.476;7.552;2022-10-24T07:35:55;9.93;;;2.08;;
68940;SDS011;55982;51.476;7.552;2022-10-24T07:38:21;4.93;;;1.55;;
68940;SDS011;55982;51.476;7.552;2022-10-24T07:40:46;10.75;;;1.60;;
68940;SDS011;55982;51.476;7.552;2022-10-24T07:43:12;7.20;;;1.70;;
68940;SDS011;55982;51.476;7.552;2022-10-24T07:45:38;10.10;;;2.17;;
68940;SDS011;55982;51.476;7.552;2022-10-24T07:48:04;7.75;;;1.67;;
68940;SDS011;55982;51.476;7.552;2022-10-24T07:50:30;21.30;;;1.92;;
68940;SDS011;55982;51.476;7.552;2022-10-24T07:52:57;7.45;;;1.70;;
68940;SDS011;55982;51.476;7.552;2022-10-24T07:55:23;5.63;;;1.40;;
68940;SDS011;55982;51.476;7.552;2022-10-24T07:57:48;11.35;;;2.15;;
68940;SDS011;55982;51.476;7.552;2022-10-24T08:00:13;8.07;;;1.75;;
68940;SDS011;55982;51.476;7.552;2022-10-24T08:02:39;4.85;;;1.17;;
68940;SDS011;55982;51.476;7.552;2022-10-24T08:05:05;7.55;;;2.30;;
68940;SDS011;55982;51.476;7.552;2022-10-24T08:07:30;7.95;;;1.60;;
68940;SDS011;55982;51.476;7.552;2022-10-24T08:09:58;6.88;;;1.50;;
68940;SDS011;55982;51.476;7.552;2022-10-24T08:12:23;3.85;;;1.20;;
68940;SDS011;55982;51.476;7.552;2022-10-24T08:14:49;5.43;;;1.63;;
68940;SDS011;55982;51.476;7.552;2022-10-24T08:17:16;8.25;;;1.60;;
68940;SDS011;55982;51.476;7.552;2022-10-24T08:19:41;10.52;;;1.88;;
68940;SDS011;55982;51.476;7.552;2022-10-24T08:22:07;5.50;;;1.17;;
68940;SDS011;55982;51.476;7.552;2022-10-24T08:24:33;6.32;;;1.73;;
68940;SDS011;55982;51.476;7.552;2022-10-24T08:26:58;8.07;;;1.48;;
68940;SDS011;55982;51.476;7.552;2022-10-24T08:29:24;11.57;;;1.88;;
68940;SDS011;55982;51.476;7.552;2022-10-24T08:31:50;5.60;;;1.27;;
68940;SDS011;55982;51.476;7.552;2022-10-24T08:34:16;4.85;;;1.50;;
68940;SDS011;55982;51.476;7.552;2022-10-24T08:36:42;4.53;;;1.15;;
68940;SDS011;55982;51.476;7.552;2022-10-24T08:39:08;7.10;;;1.73;;
68940;SDS011;55982;51.476;7.552;2022-10-24T08:41:50;5.65;;;1.58;;
68940;SDS011;55982;51.476;7.552;2022-10-24T08:44:21;6.20;;;1.95;;
68940;SDS011;55982;51.476;7.552;2022-10-24T08:52:35;6.55;;;1.70;;
68940;SDS011;55982;51.476;7.552;2022-10-24T08:57:45;6.15;;;1.40;;
68940;SDS011;55982;51.476;7.552;2022-10-24T09:03:04;6.32;;;1.30;;
68940;SDS011;55982;51.476;7.552;2022-10-24T09:05:47;5.82;;;1.80;;
68940;SDS011;55982;51.476;7.552;2022-10-24T09:14:16;7.22;;;1.45;;
68940;SDS011;55982;51.476;7.552;2022-10-24T09:16:45;6.50;;;1.33;;
68940;SDS011;55982;51.476;7.552;2022-10-24T09:22:39;9.35;;;1.35;;
68940;SDS011;55982;51.476;7.552;2022-10-24T09:25:07;10.35;;;1.38;;
68940;SDS011;55982;51.476;7.552;2022-10-24T09:27:39;10.30;;;2.08;;
68940;SDS011;55982;51.476;7.552;2022-10-24T09:30:06;7.78;;;1.73;;
68940;SDS011;55982;51.476;7.552;2022-10-24T09:32:39;8.43;;;2.45;;
68940;SDS011;55982;51.476;7.552;2022-10-24T09:35:07;7.45;;;1.50;;
68940;SDS011;55982;51.476;7.552;2022-10-24T09:37:43;8.65;;;1.65;;
68940;SDS011;55982;51.476;7.552;2022-10-24T09:42:59;5.45;;;1.38;;
68940;SDS011;55982;51.476;7.552;2022-10-24T09:45:41;7.05;;;1.70;;
68940;SDS011;55982;51.476;7.552;2022-10-24T09:48:21;7.30;;;1.55;;
68940;SDS011;55982;51.476;7.552;2022-10-24T09:50:51;15.20;;;1.88;;
68940;SDS011;55982;51.476;7.552;2022-10-24T09:53:25;9.65;;;1.30;;
68940;SDS011;55982;51.476;7.552;2022-10-24T09:55:55;6.97;;;1.92;;
68940;SDS011;55982;51.476;7.552;2022-10-24T09:58:25;11.52;;;1.50;;
68940;SDS011;55982;51.476;7.552;2022-10-24T10:01:06;8.50;;;1.65;;
68940;SDS011;55982;51.476;7.552;2022-10-24T10:04:09;6.03;;;1.63;;
68940;SDS011;55982;51.476;7.552;2022-10-24T10:06:31;7.77;;;2.00;;
68940;SDS011;55982;51.476;7.552;2022-10-24T10:08:57;14.15;;;1.77;;
68940;SDS011;55982;51.476;7.552;2022-10-24T10:11:24;5.03;;;1.33;;
68940;SDS011;55982;51.476;7.552;2022-10-24T10:13:54;9.60;;;1.50;;
68940;SDS011;55982;51.476;7.552;2022-10-24T10:16:22;8.02;;;1.48;;
68940;SDS011;55982;51.476;7.552;2022-10-24T10:18:49;7.90;;;1.95;;
68940;SDS011;55982;51.476;7.552;2022-10-24T10:21:25;9.68;;;1.50;;
68940;SDS011;55982;51.476;7.552;2022-10-24T10:23:51;10.55;;;1.52;;
68940;SDS011;55982;51.476;7.552;2022-10-24T10:26:25;9.07;;;1.63;;
68940;SDS011;55982;51.476;7.552;2022-10-24T10:31:42;10.93;;;1.42;;
68940;SDS011;55982;51.476;7.552;2022-10-24T10:34:34;9.43;;;2.03;;
68940;SDS011;55982;51.476;7.552;2022-10-24T10:37:22;8.68;;;1.50;;
68940;SDS011;55982;51.476;7.552;2022-10-24T10:43:36;9.40;;;1.70;;
68940;SDS011;55982;51.476;7.552;2022-10-24T10:46:15;6.20;;;1.48;;
68940;SDS011;55982;51.476;7.552;2022-10-24T10:56:57;9.13;;;1.90;;
68940;SDS011;55982;51.476;7.552;2022-10-24T11:02:20;13.30;;;1.77;;
68940;SDS011;55982;51.476;7.552;2022-10-24T11:10:07;6.15;;;1.30;;
68940;SDS011;55982;51.476;7.552;2022-10-24T11:12:43;8.48;;;1.65;;
68940;SDS011;55982;51.476;7.552;2022-10-24T11:15:17;14.88;;;1.67;;
68940;SDS011;55982;51.476;7.552;2022-10-24T11:20:28;12.80;;;1.45;;
68940;SDS011;55982;51.476;7.552;2022-10-24T11:23:26;7.57;;;1.17;;
68940;SDS011;55982;51.476;7.552;2022-10-24T11:25:59;9.00;;;1.73;;
68940;SDS011;55982;51.476;7.552;2022-10-24T11:28:35;8.50;;;1.30;;
68940;SDS011;55982;51.476;7.552;2022-10-24T11:31:08;9.40;;;1.48;;
68940;SDS011;55982;51.476;7.552;2022-10-24T11:33:48;8.50;;;1.73;;
68940;SDS011;55982;51.476;7.552;2022-10-24T11:36:22;11.38;;;1.45;;
68940;SDS011;55982;51.476;7.552;2022-10-24T11:39:17;6.88;;;1.83;;
68940;SDS011;55982;51.476;7.552;2022-10-24T11:44:24;9.43;;;1.58;;
68940;SDS011;55982;51.476;7.552;2022-10-24T11:52:39;15.60;;;1.98;;
68940;SDS011;55982;51.476;7.552;2022-10-24T11:55:13;11.65;;;2.00;;
68940;SDS011;55982;51.476;7.552;2022-10-24T11:57:43;9.13;;;1.48;;
68940;SDS011;55982;51.476;7.552;2022-10-24T12:00:20;14.15;;;1.23;;
68940;SDS011;55982;51.476;7.552;2022-10-24T12:05:49;9.93;;;1.50;;
68940;SDS011;55982;51.476;7.552;2022-10-24T12:16:30;11.10;;;2.08;;
68940;SDS011;55982;51.476;7.552;2022-10-24T12:19:02;6.32;;;1.30;;
68940;SDS011;55982;51.476;7.552;2022-10-24T12:24:32;5.47;;;1.30;;
68940;SDS011;55982;51.476;7.552;2022-10-24T12:27:03;7.82;;;1.52;;
68940;SDS011;55982;51.476;7.552;2022-10-24T12:29:32;11.05;;;1.67;;
68940;SDS011;55982;51.476;7.552;2022-10-24T12:32:20;7.35;;;1.20;;
68940;SDS011;55982;51.476;7.552;2022-10-24T12:35:01;10.20;;;1.60;;
68940;SDS011;55982;51.476;7.552;2022-10-24T12:39:53;8.77;;;1.75;;
68940;SDS011;55982;51.476;7.552;2022-10-24T12:44:45;4.85;;;1.38;;
68940;SDS011;55982;51.476;7.552;2022-10-24T12:58:20;8.25;;;1.48;;
68940;SDS011;55982;51.476;7.552;2022-10-24T13:00:57;8.93;;;1.80;;
68940;SDS011;55982;51.476;7.552;2022-10-24T13:06:19;9.98;;;1.45;;
68940;SDS011;55982;51.476;7.552;2022-10-24T13:09:33;7.57;;;1.75;;
68940;SDS011;55982;51.476;7.552;2022-10-24T13:20:21;8.75;;;1.60;;
68940;SDS011;55982;51.476;7.552;2022-10-24T13:22:49;6.43;;;1.33;;
68940;SDS011;55982;51.476;7.552;2022-10-24T13:25:30;8.60;;;1.33;;
68940;SDS011;55982;51.476;7.552;2022-10-24T13:28:35;8.23;;;1.55;;
68940;SDS011;55982;51.476;7.552;2022-10-24T13:38:39;7.70;;;1.42;;
68940;SDS011;55982;51.476;7.552;2022-10-24T13:41:07;8.52;;;1.58;;
68940;SDS011;55982;51.476;7.552;2022-10-24T13:43:42;7.78;;;1.50;;
68940;SDS011;55982;51.476;7.552;2022-10-24T13:46:10;10.90;;;2.17;;
68940;SDS011;55982;51.476;7.552;2022-10-24T13:49:03;6.20;;;1.80;;
68940;SDS011;55982;51.476;7.552;2022-10-24T13:54:15;9.10;;;1.70;;
68940;SDS011;55982;51.476;7.552;2022-10-24T13:56:43;6.07;;;1.70;;
68940;SDS011;55982;51.476;7.552;2022-10-24T13:59:44;9.40;;;1.98;;
68940;SDS011;55982;51.476;7.552;2022-10-24T14:02:06;6.88;;;1.88;;
68940;SDS011;55982;51.476;7.552;2022-10-24T14:04:43;6.75;;;1.38;;
68940;SDS011;55982;51.476;7.552;2022-10-24T14:07:12;10.90;;;1.80;;
68940;SDS011;55982;51.476;7.552;2022-10-24T14:09:43;9.75;;;1.60;;
68940;SDS011;55982;51.476;7.552;2022-10-24T14:12:20;6.95;;;1.50;;
68940;SDS011;55982;51.476;7.552;2022-10-24T14:14:48;7.53;;;1.40;;
68940;SDS011;55982;51.476;7.552;2022-10-24T14:17:25;6.35;;;1.20;;
68940;SDS011;55982;51.476;7.552;2022-10-24T14:19:57;5.30;;;1.38;;
68940;SDS011;55982;51.476;7.552;2022-10-24T14:22:34;11.40;;;1.80;;
68940;SDS011;55982;51.476;7.552;2022-10-24T14:25:04;7.05;;;1.38;;
68940;SDS011;55982;51.476;7.552;2022-10-24T14:27:30;9.02;;;1.92;;
68940;SDS011;55982;51.476;7.552;2022-10-24T14:30:00;7.90;;;1.48;;
68940;SDS011;55982;51.476;7.552;2022-10-24T14:32:28;7.32;;;1.75;;
68940;SDS011;55982;51.476;7.552;2022-10-24T14:34:55;8.27;;;1.40;;
68940;SDS011;55982;51.476;7.552;2022-10-24T14:37:29;8.27;;;1.40;;
68940;SDS011;55982;51.476;7.552;2022-10-24T14:39:58;5.50;;;1.35;;
68940;SDS011;55982;51.476;7.552;2022-10-24T14:42:24;5.88;;;1.23;;
68940;SDS011;55982;51.476;7.552;2022-10-24T14:44:51;9.15;;;1.90;;
68940;SDS011;55982;51.476;7.552;2022-10-24T14:47:22;10.00;;;1.20;;
68940;SDS011;55982;51.476;7.552;2022-10-24T14:49:52;9.32;;;1.70;;
68940;SDS011;55982;51.476;7.552;2022-10-24T14:57:23;6.03;;;1.15;;
68940;SDS011;55982;51.476;7.552;2022-10-24T14:59:50;7.35;;;1.33;;
68940;SDS011;55982;51.476;7.552;2022-10-24T15:07:44;7.15;;;1.50;;
68940;SDS011;55982;51.476;7.552;2022-10-24T15:12:45;6.88;;;1.20;;
68940;SDS011;55982;51.476;7.552;2022-10-24T15:15:22;5.50;;;1.40;;
68940;SDS011;55982;51.476;7.552;2022-10-24T15:21:06;7.38;;;1.80;;
68940;SDS011;55982;51.476;7.552;2022-10-24T15:23:44;6.03;;;1.20;;
68940;SDS011;55982;51.476;7.552;2022-10-24T15:26:23;8.60;;;1.40;;
68940;SDS011;55982;51.476;7.552;2022-10-24T15:31:21;10.30;;;1.13;;
68940;SDS011;55982;51.476;7.552;2022-10-24T15:33:47;6.65;;;1.58;;
68940;SDS011;55982;51.476;7.552;2022-10-24T15:36:23;10.02;;;1.40;;
68940;SDS011;55982;51.476;7.552;2022-10-24T15:38:53;8.57;;;1.42;;
68940;SDS011;55982;51.476;7.552;2022-10-24T15:41:20;6.22;;;1.35;;
68940;SDS011;55982;51.476;7.552;2022-10-24T15:43:45;10.88;;;1.90;;
68940;SDS011;55982;51.476;7.552;2022-10-24T15:46:11;11.13;;;1.75;;
68940;SDS011;55982;51.476;7.552;2022-10-24T15:48:36;5.00;;;1.45;;
68940;SDS011;55982;51.476;7.552;2022-10-24T15:51:03;6.63;;;1.70;;
68940;SDS011;55982;51.476;7.552;2022-10-24T15:53:29;7.35;;;2.17;;
68940;SDS011;55982;51.476;7.552;2022-10-24T15:55:54;9.70;;;1.75;;
68940;SDS011;55982;51.476;7.552;2022-10-24T15:58:19;10.10;;;1.70;;
68940;SDS011;55982;51.476;7.552;2022-10-24T16:00:45;6.57;;;1.77;;
68940;SDS011;55982;51.476;7.552;2022-10-24T16:03:12;4.55;;;1.35;;
68940;SDS011;55982;51.476;7.552;2022-10-24T16:05:45;9.70;;;1.60;;
68940;SDS011;55982;51.476;7.552;2022-10-24T16:08:13;9.85;;;2.38;;
68940;SDS011;55982;51.476;7.552;2022-10-24T16:10:40;7.20;;;1.60;;
68940;SDS011;55982;51.476;7.552;2022-10-24T16:13:08;9.75;;;1.83;;
68940;SDS011;55982;51.476;7.552;2022-10-24T16:15:37;9.38;;;2.00;;
68940;SDS011;55982;51.476;7.552;2022-10-24T16:18:03;3.22;;;1.45;;
68940;SDS011;55982;51.476;7.552;2022-10-24T16:20:29;7.75;;;1.83;;
68940;SDS011;55982;51.476;7.552;2022-10-24T16:22:55;10.02;;;2.35;;
68940;SDS011;55982;51.476;7.552;2022-10-24T16:25:27;8.98;;;2.15;;
68940;SDS011;55982;51.476;7.552;2022-10-24T16:27:54;8.20;;;1.77;;
68940;SDS011;55982;51.476;7.552;2022-10-24T16:30:22;5.97;;;1.50;;
68940;SDS011;55982;51.476;7.552;2022-10-24T16:32:49;7.90;;;1.92;;
68940;SDS011;55982;51.476;7.552;2022-10-24T16:35:16;9.55;;;2.30;;
68940;SDS011;55982;51.476;7.552;2022-10-24T16:37:43;10.95;;;2.35;;
68940;SDS011;55982;51.476;7.552;2022-10-24T16:40:08;14.25;;;2.25;;
68940;SDS011;55982;51.476;7.552;2022-10-24T16:42:34;17.38;;;2.88;;
68940;SDS011;55982;51.476;7.552;2022-10-24T16:44:59;13.05;;;1.98;;
68940;SDS011;55982;51.476;7.552;2022-10-24T16:47:26;10.65;;;2.33;;
68940;SDS011;55982;51.476;7.552;2022-10-24T16:49:57;9.75;;;2.58;;
68940;SDS011;55982;51.476;7.552;2022-10-24T16:52:23;16.38;;;3.30;;
68940;SDS011;55982;51.476;7.552;2022-10-24T16:54:49;15.40;;;4.85;;
68940;SDS011;55982;51.476;7.552;2022-10-24T16:57:15;28.10;;;10.77;;
68940;SDS011;55982;51.476;7.552;2022-10-24T16:59:40;14.18;;;4.13;;
68940;SDS011;55982;51.476;7.552;2022-10-24T17:02:05;17.95;;;5.55;;
68940;SDS011;55982;51.476;7.552;2022-10-24T17:04:32;17.92;;;6.75;;
68940;SDS011;55982;51.476;7.552;2022-10-24T17:06:58;18.90;;;5.68;;
68940;SDS011;55982;51.476;7.552;2022-10-24T17:09:23;13.77;;;5.15;;
68940;SDS011;55982;51.476;7.552;2022-10-24T17:11:48;19.40;;;7.25;;
68940;SDS011;55982;51.476;7.552;2022-10-24T17:14:14;20.15;;;5.97;;
68940;SDS011;55982;51.476;7.552;2022-10-24T17:16:39;18.15;;;7.10;;
68940;SDS011;55982;51.476;7.552;2022-10-24T17:19:05;15.60;;;4.90;;
68940;SDS011;55982;51.476;7.552;2022-10-24T17:21:31;15.10;;;8.20;;
68940;SDS011;55982;51.476;7.552;2022-10-24T17:23:56;22.35;;;5.97;;
68940;SDS011;55982;51.476;7.552;2022-10-24T17:26:22;19.02;;;5.43;;